createdAt,value
2022-11-15T00:00:59.855Z,9.73
2022-11-15T00:03:28.784Z,9.70
2022-11-15T00:05:56.175Z,8.33
2022-11-15T00:08:23.311Z,10.13
2022-11-15T00:10:57.860Z,9.97
2022-11-15T00:13:25.386Z,10.87
2022-11-15T00:15:52.883Z,10.27
2022-11-15T00:18:20.438Z,11.67
2022-11-15T00:20:47.641Z,12.23
2022-11-15T00:23:14.805Z,12.80
2022-11-15T00:25:42.168Z,11.33
2022-11-15T00:28:09.286Z,10.90
2022-11-15T00:30:36.501Z,9.40
2022-11-15T00:33:04.830Z,11.73
2022-11-15T00:35:36.173Z,11.03
2022-11-15T00:38:03.944Z,9.93
2022-11-15T00:40:31.650Z,8.33
2022-11-15T00:42:58.874Z,7.60
2022-11-15T00:45:26.567Z,8.63
2022-11-15T00:47:53.990Z,9.77
2022-11-15T00:50:21.272Z,9.00
2022-11-15T00:52:49.086Z,9.83
2022-11-15T00:55:17.919Z,8.57
2022-11-15T00:57:45.688Z,8.20
2022-11-15T01:00:14.036Z,5.53
2022-11-15T01:02:41.265Z,5.87
2022-11-15T01:05:09.149Z,7.00
2022-11-15T01:07:36.923Z,7.20
2022-11-15T01:10:06.352Z,7.90
2022-11-15T01:12:33.626Z,7.10
2022-11-15T01:15:00.782Z,9.30
2022-11-15T01:17:28.034Z,9.10
2022-11-15T01:19:55.229Z,9.23
2022-11-15T01:22:23.411Z,9.13
2022-11-15T01:24:51.781Z,8.60
2022-11-15T01:27:19.120Z,10.50
2022-11-15T01:29:46.313Z,8.87
2022-11-15T01:32:13.510Z,9.30
2022-11-15T01:34:40.706Z,9.90
2022-11-15T01:37:07.886Z,10.80
2022-11-15T01:39:35.058Z,12.50
2022-11-15T01:42:02.578Z,13.07
2022-11-15T01:44:35.526Z,16.50
2022-11-15T01:47:08.418Z,15.07
2022-11-15T01:49:37.484Z,17.00
2022-11-15T01:52:09.931Z,15.20
2022-11-15T01:54:37.273Z,18.17
2022-11-15T01:57:08.954Z,17.90
2022-11-15T01:59:38.129Z,18.27
2022-11-15T02:02:05.686Z,16.40
2022-11-15T02:04:35.066Z,16.30
2022-11-15T02:07:06.208Z,17.90
2022-11-15T02:09:33.467Z,16.97
2022-11-15T02:12:01.058Z,18.83
2022-11-15T02:14:30.742Z,16.43
2022-11-15T02:17:30.118Z,14.87
2022-11-15T02:20:12.852Z,15.60
2022-11-15T02:23:11.017Z,16.63
2022-11-15T02:26:15.293Z,14.80
2022-11-15T02:29:03.808Z,14.03
2022-11-15T02:31:49.532Z,16.13
2022-11-15T02:34:47.738Z,14.70
2022-11-15T02:37:40.802Z,15.00
2022-11-15T02:40:41.076Z,15.80
2022-11-15T02:43:32.525Z,13.37
2022-11-15T02:46:19.117Z,14.33
2022-11-15T02:48:47.683Z,15.73
2022-11-15T02:51:15.773Z,16.70
2022-11-15T02:53:43.148Z,15.87
2022-11-15T02:56:12.242Z,16.13
2022-11-15T02:59:09.385Z,16.30
2022-11-15T03:01:46.818Z,15.00
2022-11-15T03:04:20.225Z,14.30
2022-11-15T03:06:58.747Z,15.50
2022-11-15T03:09:34.605Z,17.50
2022-11-15T03:12:13.598Z,17.33
2022-11-15T03:15:10.308Z,18.10
2022-11-15T03:17:42.174Z,15.40
2022-11-15T03:20:11.510Z,16.30
2022-11-15T03:22:41.663Z,14.57
2022-11-15T03:25:14.432Z,12.20
2022-11-15T03:27:47.763Z,13.40
2022-11-15T03:30:15.643Z,11.47
2022-11-15T03:33:03.446Z,12.20
2022-11-15T03:35:36.499Z,12.77
2022-11-15T03:38:23.022Z,10.23
2022-11-15T03:40:52.988Z,11.00
2022-11-15T03:43:32.116Z,10.73
2022-11-15T03:46:07.625Z,11.50
2022-11-15T03:48:44.558Z,12.70
2022-11-15T03:51:12.275Z,12.70
2022-11-15T03:53:39.574Z,12.70
2022-11-15T03:56:07.111Z,12.60
2022-11-15T03:58:34.365Z,13.33
2022-11-15T04:01:01.844Z,12.70
2022-11-15T04:03:29.519Z,12.50
2022-11-15T04:05:56.924Z,12.93
2022-11-15T04:08:24.036Z,12.30
2022-11-15T04:10:51.223Z,12.93
2022-11-15T04:13:18.383Z,12.07
2022-11-15T04:15:45.608Z,13.10
2022-11-15T04:18:12.862Z,13.87
2022-11-15T04:20:58.761Z,12.87
2022-11-15T04:23:44.270Z,14.50
2022-11-15T04:26:14.602Z,13.50
2022-11-15T04:29:01.792Z,12.40
2022-11-15T04:31:29.463Z,11.57
2022-11-15T04:33:56.864Z,11.60
2022-11-15T04:36:43.126Z,12.30
2022-11-15T04:39:10.489Z,10.97
2022-11-15T04:41:37.814Z,13.17
2022-11-15T04:44:05.019Z,12.70
2022-11-15T04:46:32.255Z,12.67
2022-11-15T04:48:59.596Z,9.97
2022-11-15T04:51:27.054Z,10.20
2022-11-15T04:53:54.194Z,9.90
2022-11-15T04:56:21.362Z,10.47
2022-11-15T04:58:51.310Z,11.10
2022-11-15T05:01:18.846Z,10.37
2022-11-15T05:04:05.073Z,10.20
2022-11-15T05:06:32.437Z,9.73
2022-11-15T05:08:59.660Z,10.40
2022-11-15T05:11:28.313Z,8.83
2022-11-15T05:13:55.562Z,9.57
2022-11-15T05:16:23.038Z,10.30
2022-11-15T05:18:56.467Z,9.30
2022-11-15T05:21:23.600Z,9.77
2022-11-15T05:23:50.758Z,9.23
2022-11-15T05:26:19.282Z,9.37
2022-11-15T05:28:46.473Z,10.33
2022-11-15T05:31:15.978Z,9.50
2022-11-15T05:33:44.695Z,10.27
2022-11-15T05:36:26.675Z,11.07
2022-11-15T05:38:54.582Z,11.07
2022-11-15T05:41:27.718Z,11.00
2022-11-15T05:43:55.229Z,11.13
2022-11-15T05:46:22.511Z,9.83
2022-11-15T05:48:52.096Z,11.30
2022-11-15T05:51:21.978Z,10.97
2022-11-15T05:53:50.050Z,11.30
2022-11-15T05:56:17.575Z,11.07
2022-11-15T05:58:45.088Z,11.80
2022-11-15T06:01:12.385Z,11.43
2022-11-15T06:03:39.587Z,11.07
2022-11-15T06:06:07.319Z,10.67
2022-11-15T06:08:36.273Z,9.00
2022-11-15T06:11:08.076Z,10.83
2022-11-15T06:13:35.633Z,10.90
2022-11-15T06:16:02.999Z,10.67
2022-11-15T06:18:34.591Z,9.57
2022-11-15T06:21:02.014Z,11.80
2022-11-15T06:23:32.522Z,10.47
2022-11-15T06:26:01.069Z,11.00
2022-11-15T06:28:32.862Z,11.30
2022-11-15T06:31:08.731Z,12.53
2022-11-15T06:33:36.127Z,12.03
2022-11-15T06:36:05.267Z,11.67
2022-11-15T06:38:32.453Z,11.80
2022-11-15T06:41:04.887Z,12.60
2022-11-15T06:43:32.440Z,13.00
2022-11-15T06:46:00.740Z,13.30
2022-11-15T06:48:28.658Z,13.87
2022-11-15T06:50:58.024Z,13.03
2022-11-15T06:53:26.224Z,12.80
2022-11-15T06:55:55.686Z,13.10
2022-11-15T06:58:23.228Z,13.57
2022-11-15T07:00:50.522Z,15.70
2022-11-15T07:03:17.682Z,15.80
2022-11-15T07:05:55.624Z,15.30
2022-11-15T07:08:24.523Z,16.47
2022-11-15T07:10:51.854Z,17.60
2022-11-15T07:13:19.058Z,17.80
2022-11-15T07:15:46.346Z,19.97
2022-11-15T07:18:13.495Z,20.90
2022-11-15T07:20:40.846Z,22.00
2022-11-15T07:23:08.051Z,21.90
2022-11-15T07:25:35.629Z,20.77
2022-11-15T07:28:03.537Z,20.10
2022-11-15T07:30:31.274Z,21.80
2022-11-15T07:33:00.007Z,19.93
2022-11-15T07:35:28.308Z,20.80
2022-11-15T07:37:57.271Z,19.77
2022-11-15T07:40:24.951Z,20.63
2022-11-15T07:42:54.861Z,19.13
2022-11-15T07:45:23.366Z,20.73
2022-11-15T07:47:51.281Z,19.27
2022-11-15T07:50:19.233Z,19.90
2022-11-15T07:52:47.254Z,20.03
2022-11-15T07:55:15.158Z,19.53
2022-11-15T07:57:42.327Z,19.20
2022-11-15T08:00:10.340Z,17.50
2022-11-15T08:02:37.721Z,18.53
2022-11-15T08:05:05.446Z,16.93
2022-11-15T08:07:33.047Z,19.77
2022-11-15T08:10:02.154Z,19.07
2022-11-15T08:12:29.826Z,19.33
2022-11-15T08:14:57.475Z,20.97
2022-11-15T08:17:25.954Z,19.53
2022-11-15T08:19:53.313Z,20.20
2022-11-15T08:22:20.866Z,18.63
2022-11-15T08:24:48.054Z,19.87
2022-11-15T08:27:17.932Z,20.50
2022-11-15T08:29:46.150Z,17.97
2022-11-15T08:32:13.316Z,17.63
2022-11-15T08:34:40.675Z,19.00
2022-11-15T08:37:07.907Z,17.17
2022-11-15T08:39:35.080Z,16.80
2022-11-15T08:42:02.243Z,16.03
2022-11-15T08:44:29.432Z,16.13
2022-11-15T08:46:56.600Z,16.03
2022-11-15T08:49:23.833Z,15.53
2022-11-15T08:51:51.034Z,16.10
2022-11-15T08:54:18.194Z,13.77
2022-11-15T08:56:45.303Z,14.27
2022-11-15T08:59:12.484Z,14.57
2022-11-15T09:01:39.801Z,15.00
2022-11-15T09:04:07.030Z,16.63
2022-11-15T09:06:34.444Z,15.20
2022-11-15T09:09:02.432Z,16.40
2022-11-15T09:11:29.732Z,15.63
2022-11-15T09:13:57.141Z,13.73
2022-11-15T09:16:24.358Z,13.60
2022-11-15T09:18:51.661Z,13.00
2022-11-15T09:21:19.508Z,12.57
2022-11-15T09:23:46.882Z,12.80
2022-11-15T09:26:14.398Z,14.47
2022-11-15T09:28:42.901Z,13.10
2022-11-15T09:31:10.525Z,13.37
2022-11-15T09:33:38.075Z,13.10
2022-11-15T09:36:07.978Z,13.43
2022-11-15T09:38:35.984Z,12.90
2022-11-15T09:41:15.540Z,13.20
2022-11-15T09:43:48.720Z,13.10
2022-11-15T09:46:18.970Z,11.93
2022-11-15T09:49:00.285Z,12.50
2022-11-15T09:51:30.090Z,11.83
2022-11-15T09:54:52.280Z,11.13
2022-11-15T09:57:22.866Z,13.47
2022-11-15T10:00:12.336Z,13.40
2022-11-15T10:02:59.824Z,14.47
2022-11-15T10:05:27.657Z,12.80
2022-11-15T10:08:23.872Z,13.80
2022-11-15T10:11:30.398Z,13.87
2022-11-15T10:13:51.782Z,12.53
2022-11-15T10:16:49.643Z,13.73
2022-11-15T10:19:26.934Z,15.13
2022-11-15T10:22:06.283Z,15.90
2022-11-15T10:24:40.529Z,15.83
2022-11-15T10:27:14.448Z,15.70
2022-11-15T10:29:51.223Z,14.57
2022-11-15T10:32:21.258Z,15.67
2022-11-15T10:34:50.315Z,15.00
2022-11-15T10:37:30.374Z,14.80
2022-11-15T10:40:16.512Z,15.13
2022-11-15T10:42:43.667Z,15.20
2022-11-15T10:45:32.121Z,16.80
2022-11-15T10:48:14.518Z,17.37
2022-11-15T10:50:44.446Z,16.33
2022-11-15T10:53:17.763Z,16.60
2022-11-15T10:55:49.561Z,16.97
2022-11-15T10:58:39.728Z,17.90
2022-11-15T11:01:11.348Z,16.67
2022-11-15T11:03:40.324Z,15.90
2022-11-15T11:06:18.521Z,16.43
2022-11-15T11:09:03.433Z,17.37
2022-11-15T11:11:48.171Z,15.70
2022-11-15T11:14:37.076Z,16.37
2022-11-15T11:17:27.357Z,17.07
2022-11-15T11:20:30.818Z,16.93
2022-11-15T11:23:14.611Z,16.80
2022-11-15T11:25:51.403Z,16.27
2022-11-15T11:28:40.715Z,17.77
2022-11-15T11:31:26.854Z,17.30
2022-11-15T11:34:04.271Z,16.47
2022-11-15T11:36:40.592Z,16.27
2022-11-15T11:39:42.814Z,15.70
2022-11-15T11:42:27.470Z,15.97
2022-11-15T11:45:00.361Z,17.30
2022-11-15T11:47:59.624Z,17.13
2022-11-15T11:50:29.049Z,15.83
2022-11-15T11:53:03.670Z,17.30
2022-11-15T11:55:39.011Z,17.20
2022-11-15T11:58:18.514Z,15.90
2022-11-15T12:01:12.844Z,17.67
2022-11-15T12:03:43.043Z,17.17
2022-11-15T12:06:38.819Z,16.17
2022-11-15T12:09:12.014Z,18.73
2022-11-15T12:11:57.777Z,19.40
2022-11-15T12:14:34.354Z,19.07
2022-11-15T12:17:01.840Z,20.37
2022-11-15T12:19:31.101Z,18.37
2022-11-15T12:22:17.111Z,19.20
2022-11-15T12:24:57.747Z,18.27
2022-11-15T12:28:02.724Z,18.83
2022-11-15T12:30:55.258Z,18.30
2022-11-15T12:33:38.497Z,20.83
2022-11-15T12:36:35.770Z,21.43
2022-11-15T12:39:11.102Z,20.13
2022-11-15T12:41:41.051Z,20.80
2022-11-15T12:44:37.190Z,20.27
2022-11-15T12:47:24.268Z,18.93
2022-11-15T12:49:52.016Z,19.10
2022-11-15T12:52:19.999Z,18.60
2022-11-15T12:54:51.466Z,18.60
2022-11-15T12:57:18.533Z,19.70
2022-11-15T12:59:59.859Z,18.03
2022-11-15T13:02:28.289Z,18.90
2022-11-15T13:05:19.858Z,19.07
2022-11-15T13:07:49.688Z,18.57
2022-11-15T13:10:33.334Z,18.00
2022-11-15T13:13:08.262Z,19.43
2022-11-15T13:16:08.532Z,19.57
2022-11-15T13:18:41.414Z,19.73
2022-11-15T13:21:42.489Z,19.17
2022-11-15T13:24:18.017Z,19.73
2022-11-15T13:26:46.443Z,18.97
2022-11-15T13:29:19.183Z,21.67
2022-11-15T13:31:47.276Z,19.07
2022-11-15T13:34:52.537Z,20.47
2022-11-15T13:37:22.746Z,20.77
2022-11-15T13:39:50.901Z,19.50
2022-11-15T13:42:20.558Z,21.43
2022-11-15T13:45:03.106Z,20.97
2022-11-15T13:47:31.161Z,19.83
2022-11-15T13:49:59.262Z,21.13
2022-11-15T13:52:36.614Z,21.37
2022-11-15T13:55:14.357Z,20.20
2022-11-15T13:57:52.860Z,21.87
2022-11-15T14:01:00.041Z,22.00
2022-11-15T14:03:30.766Z,22.50
2022-11-15T14:06:16.064Z,20.70
2022-11-15T14:09:12.431Z,21.17
2022-11-15T14:11:54.873Z,22.10
2022-11-15T14:14:27.822Z,22.50
2022-11-15T14:17:02.102Z,22.37
2022-11-15T14:19:29.498Z,21.67
2022-11-15T14:22:29.404Z,22.17
2022-11-15T14:25:22.567Z,22.47
2022-11-15T14:28:10.590Z,21.17
2022-11-15T14:30:37.841Z,22.50
2022-11-15T14:33:20.965Z,22.40
2022-11-15T14:35:48.582Z,22.90
2022-11-15T14:38:15.695Z,23.37
2022-11-15T14:40:44.059Z,21.27
2022-11-15T14:43:14.967Z,24.40
2022-11-15T14:45:42.491Z,22.53
2022-11-15T14:48:09.923Z,22.40
2022-11-15T14:50:37.633Z,20.67
2022-11-15T14:53:05.930Z,22.70
2022-11-15T14:55:37.244Z,24.77
2022-11-15T14:58:05.649Z,22.77
2022-11-15T15:00:35.320Z,24.20
2022-11-15T15:03:03.112Z,24.00
2022-11-15T15:05:42.493Z,27.20
2022-11-15T15:08:10.580Z,25.60
2022-11-15T15:10:43.605Z,25.00
2022-11-15T15:13:17.713Z,24.50
2022-11-15T15:15:45.524Z,23.90
2022-11-15T15:18:12.707Z,24.30
2022-11-15T15:20:41.769Z,24.00
2022-11-15T15:23:20.581Z,23.57
2022-11-15T15:25:50.046Z,24.63
2022-11-15T15:28:17.555Z,23.90
2022-11-15T15:30:44.704Z,22.50
2022-11-15T15:33:11.962Z,22.90
2022-11-15T15:35:39.211Z,23.47
2022-11-15T15:38:06.427Z,22.50
2022-11-15T15:40:34.520Z,22.20
2022-11-15T15:43:01.665Z,23.23
2022-11-15T15:45:30.568Z,23.30
2022-11-15T15:47:57.942Z,22.67
2022-11-15T15:50:29.665Z,22.20
2022-11-15T15:53:00.422Z,21.27
2022-11-15T15:55:28.514Z,22.40
2022-11-15T15:57:55.727Z,22.60
2022-11-15T16:00:24.696Z,20.87
2022-11-15T16:02:53.182Z,21.33
2022-11-15T16:05:20.921Z,21.00
2022-11-15T16:07:48.855Z,23.40
2022-11-15T16:10:30.901Z,20.90
2022-11-15T16:12:59.070Z,23.07
2022-11-15T16:15:29.263Z,22.50
2022-11-15T16:17:58.579Z,22.20
2022-11-15T16:20:38.215Z,21.30
2022-11-15T16:23:11.417Z,22.40
2022-11-15T16:26:03.985Z,22.77
2022-11-15T16:28:33.861Z,22.37
2022-11-15T16:31:02.750Z,22.40
2022-11-15T16:33:30.014Z,24.40
2022-11-15T16:35:57.563Z,21.40
2022-11-15T16:38:24.725Z,22.30
2022-11-15T16:40:51.886Z,22.17
2022-11-15T16:43:19.154Z,21.30
2022-11-15T16:45:46.554Z,21.27
2022-11-15T16:48:25.608Z,21.50
2022-11-15T16:50:57.459Z,20.80
2022-11-15T16:53:25.427Z,19.97
2022-11-15T16:55:52.556Z,21.60
2022-11-15T16:58:19.650Z,21.03
2022-11-15T17:00:54.475Z,21.97
2022-11-15T17:03:23.254Z,19.67
2022-11-15T17:05:51.401Z,21.70
2022-11-15T17:08:20.877Z,21.37
2022-11-15T17:10:48.264Z,20.87
2022-11-15T17:13:15.425Z,20.47
2022-11-15T17:15:42.735Z,20.77
2022-11-15T17:18:13.413Z,21.07
2022-11-15T17:20:42.746Z,22.03
2022-11-15T17:23:14.790Z,23.53
2022-11-15T17:25:42.453Z,20.50
2022-11-15T17:28:10.321Z,23.07
2022-11-15T17:30:37.459Z,20.53
2022-11-15T17:33:05.335Z,19.77
2022-11-15T17:35:32.487Z,20.97
2022-11-15T17:37:59.590Z,20.40
2022-11-15T17:40:26.749Z,19.37
2022-11-15T17:42:53.923Z,21.00
2022-11-15T17:45:21.146Z,20.90
2022-11-15T17:47:48.339Z,21.70
2022-11-15T17:50:16.224Z,20.60
2022-11-15T17:52:43.348Z,19.10
2022-11-15T17:55:10.562Z,20.10
2022-11-15T17:57:37.690Z,21.97
2022-11-15T18:00:06.266Z,22.37
2022-11-15T18:02:33.397Z,20.87
2022-11-15T18:05:00.488Z,21.80
2022-11-15T18:07:27.807Z,22.97
2022-11-15T18:09:55.004Z,22.27
2022-11-15T18:12:22.251Z,22.80
2022-11-15T18:14:49.401Z,23.93
2022-11-15T18:17:18.995Z,21.97
2022-11-15T18:19:46.399Z,23.23
2022-11-15T18:22:13.625Z,24.80
2022-11-15T18:24:42.915Z,23.27
2022-11-15T18:27:10.102Z,23.50
2022-11-15T18:29:38.181Z,23.17
2022-11-15T18:32:11.699Z,25.47
2022-11-15T18:34:39.425Z,23.87
2022-11-15T18:37:06.994Z,22.20
2022-11-15T18:39:34.202Z,23.87
2022-11-15T18:42:01.574Z,22.97
2022-11-15T18:44:30.185Z,22.50
2022-11-15T18:46:58.262Z,21.73
2022-11-15T18:49:25.994Z,22.77
2022-11-15T18:51:53.162Z,28.00
2022-11-15T18:54:20.306Z,23.50
2022-11-15T18:56:47.615Z,22.73
2022-11-15T18:59:15.323Z,20.97
2022-11-15T19:01:50.105Z,23.03
2022-11-15T19:04:19.911Z,22.30
2022-11-15T19:06:49.233Z,25.13
2022-11-15T19:09:18.710Z,22.30
2022-11-15T19:11:48.889Z,20.73
2022-11-15T19:14:18.093Z,20.33
2022-11-15T19:16:50.365Z,18.83
2022-11-15T19:19:20.291Z,19.87
2022-11-15T19:21:47.628Z,20.50
2022-11-15T19:24:15.415Z,21.33
2022-11-15T19:26:43.174Z,19.73
2022-11-15T19:29:10.662Z,18.07
2022-11-15T19:31:38.118Z,18.87
2022-11-15T19:34:06.519Z,17.80
2022-11-15T19:36:42.660Z,19.03
2022-11-15T19:39:14.233Z,21.17
2022-11-15T19:41:43.010Z,17.40
2022-11-15T19:44:11.730Z,15.53
2022-11-15T19:46:39.493Z,18.10
2022-11-15T19:49:08.195Z,14.87
2022-11-15T19:51:35.418Z,17.83
2022-11-15T19:54:06.776Z,19.80
2022-11-15T19:56:34.965Z,14.50
2022-11-15T19:59:03.348Z,17.40
2022-11-15T20:01:33.170Z,11.27
2022-11-15T20:04:00.939Z,9.77
2022-11-15T20:06:40.894Z,9.97
2022-11-15T20:09:12.084Z,13.00
2022-11-15T20:11:39.459Z,11.00
2022-11-15T20:14:08.961Z,14.90
2022-11-15T20:16:36.149Z,14.43
2022-11-15T20:19:03.424Z,11.10
2022-11-15T20:21:30.614Z,10.40
2022-11-15T20:23:58.197Z,9.50
2022-11-15T20:26:25.599Z,9.83
2022-11-15T20:28:53.100Z,10.00
2022-11-15T20:31:21.777Z,10.33
2022-11-15T20:33:48.874Z,9.43
2022-11-15T20:36:16.177Z,11.73
2022-11-15T20:38:44.600Z,10.13
2022-11-15T20:41:12.883Z,10.60
2022-11-15T20:43:43.408Z,11.20
2022-11-15T20:46:12.566Z,9.70
2022-11-15T20:48:40.397Z,9.93
2022-11-15T20:51:14.515Z,9.00
2022-11-15T20:53:43.516Z,9.10
2022-11-15T20:56:17.193Z,8.83
2022-11-15T20:58:50.161Z,9.03
2022-11-15T21:01:23.363Z,9.43
2022-11-15T21:03:55.753Z,8.40
2022-11-15T21:06:24.922Z,9.77
2022-11-15T21:09:11.662Z,8.60
2022-11-15T21:11:57.723Z,11.37
2022-11-15T21:14:25.190Z,11.70
2022-11-15T21:16:52.348Z,10.67
2022-11-15T21:19:23.866Z,12.17
2022-11-15T21:21:54.436Z,13.97
2022-11-15T21:24:22.273Z,11.43
2022-11-15T21:26:49.562Z,13.50
2022-11-15T21:29:18.089Z,13.03
2022-11-15T21:31:47.394Z,11.90
2022-11-15T21:34:15.143Z,12.07
2022-11-15T21:36:42.872Z,12.70
2022-11-15T21:39:10.345Z,10.67
2022-11-15T21:41:37.508Z,10.47
2022-11-15T21:44:04.919Z,9.53
2022-11-15T21:46:32.719Z,9.83
2022-11-15T21:49:00.003Z,9.37
2022-11-15T21:51:27.202Z,9.80
2022-11-15T21:53:56.067Z,9.70
2022-11-15T21:56:24.167Z,10.80
2022-11-15T21:58:52.013Z,10.60
2022-11-15T22:01:38.220Z,9.30
2022-11-15T22:04:06.715Z,10.27
2022-11-15T22:06:34.927Z,9.43
2022-11-15T22:09:02.905Z,9.50
2022-11-15T22:11:30.209Z,9.00
2022-11-15T22:13:57.375Z,8.73
2022-11-15T22:16:24.510Z,9.10
2022-11-15T22:18:51.907Z,7.43
2022-11-15T22:21:19.575Z,6.50
2022-11-15T22:23:46.897Z,6.90
2022-11-15T22:26:22.014Z,7.30
2022-11-15T22:28:50.641Z,7.10
2022-11-15T22:31:18.199Z,6.40
2022-11-15T22:33:45.513Z,6.50
2022-11-15T22:36:13.353Z,6.33
2022-11-15T22:38:40.610Z,7.23
2022-11-15T22:41:08.611Z,7.20
2022-11-15T22:43:35.807Z,7.17
2022-11-15T22:46:03.970Z,6.70
2022-11-15T22:48:34.305Z,6.03
2022-11-15T22:51:02.331Z,6.30
2022-11-15T22:53:30.386Z,5.97
2022-11-15T22:56:01.016Z,6.73
2022-11-15T22:58:30.822Z,7.00
2022-11-15T23:01:01.256Z,6.47
2022-11-15T23:03:29.844Z,6.60
2022-11-15T23:06:02.669Z,6.37
2022-11-15T23:08:30.406Z,7.17
2022-11-15T23:11:19.094Z,6.70
2022-11-15T23:13:46.252Z,5.77
2022-11-15T23:16:31.815Z,6.07
2022-11-15T23:19:07.500Z,7.10
2022-11-15T23:21:59.773Z,6.60
2022-11-15T23:24:27.080Z,6.20
2022-11-15T23:26:57.007Z,5.50
2022-11-15T23:29:25.806Z,6.03
2022-11-15T23:32:13.090Z,6.70
2022-11-15T23:34:45.425Z,5.07
2022-11-15T23:37:15.408Z,4.10
2022-11-15T23:39:42.723Z,5.00
2022-11-15T23:42:19.949Z,6.37
2022-11-15T23:44:50.583Z,5.30
2022-11-15T23:47:18.904Z,5.20
2022-11-15T23:49:46.310Z,7.03
2022-11-15T23:52:15.439Z,6.00
2022-11-15T23:54:42.931Z,5.37
2022-11-15T23:57:12.067Z,5.77
2022-11-15T23:59:41.218Z,5.67
